Time;durP1;ratioP1;P1;durP2;ratioP2;P2;SDS_P1;SDS_P2;PMS_P1;PMS_P2;Temp;Humidity;BMP_temperature;BMP_pressure;BME280_temperature;BME280_humidity;BME280_pressure;Samples;Min_cycle;Max_cycle;Signal;HPM_P1;HPM_P2
2021/05/04 00:00:47;;;;;;;27.17;13.57;;;;;;;;;;4287613;33;20562;-56
2021/05/04 00:03:12;;;;;;;42.08;19.58;;;;;;;;;;4260651;33;20315;-56
2021/05/04 00:05:38;;;;;;;32.53;16.92;;;;;;;;;;4259429;33;20308;-56
2021/05/04 00:08:04;;;;;;;31.52;13.88;;;;;;;;;;4260840;33;20245;-56
2021/05/04 00:10:29;;;;;;;33.70;14.63;;;;;;;;;;4269387;33;20342;-57
2021/05/04 00:12:55;;;;;;;30.90;16.48;;;;;;;;;;4258854;33;20238;-57
2021/05/04 00:15:20;;;;;;;30.00;14.15;;;;;;;;;;4258961;33;20589;-59
2021/05/04 00:17:46;;;;;;;28.12;10.85;;;;;;;;;;4264523;33;20196;-59
2021/05/04 00:20:11;;;;;;;22.02;12.60;;;;;;;;;;4287066;33;20224;-59
2021/05/04 00:22:37;;;;;;;16.83;8.18;;;;;;;;;;4279422;33;20208;-59
2021/05/04 00:25:03;;;;;;;30.23;11.60;;;;;;;;;;4265920;33;20800;-59
2021/05/04 00:27:30;;;;;;;23.15;11.98;;;;;;;;;;4264448;33;20314;-59
2021/05/04 00:29:55;;;;;;;24.63;12.32;;;;;;;;;;4270719;33;20323;-60
2021/05/04 00:32:21;;;;;;;24.55;8.30;;;;;;;;;;4267590;33;20645;-58
2021/05/04 00:34:47;;;;;;;29.87;11.93;;;;;;;;;;4268142;33;20262;-58
2021/05/04 00:37:13;;;;;;;40.45;16.87;;;;;;;;;;4258165;33;20288;-60
2021/05/04 00:39:38;;;;;;;28.45;14.35;;;;;;;;;;4266184;33;20312;-59
2021/05/04 00:42:04;;;;;;;36.92;15.40;;;;;;;;;;4260714;33;20205;-56
2021/05/04 00:44:31;;;;;;;24.40;13.48;;;;;;;;;;4258830;33;20311;-56
2021/05/04 00:46:57;;;;;;;19.65;9.93;;;;;;;;;;4261188;33;20220;-56
2021/05/04 00:49:23;;;;;;;18.85;8.90;;;;;;;;;;4270961;33;20713;-58
2021/05/04 00:51:52;;;;;;;18.20;8.75;;;;;;;;;;4260420;33;20224;-57
2021/05/04 00:54:18;;;;;;;18.45;9.13;;;;;;;;;;4281572;33;20213;-57
2021/05/04 00:56:45;;;;;;;21.87;9.15;;;;;;;;;;4259806;33;20324;-57
2021/05/04 00:59:11;;;;;;;14.50;9.13;;;;;;;;;;4268597;33;20232;-58
2021/05/04 01:01:37;;;;;;;11.48;6.20;;;;;;;;;;4256877;33;20274;-58
2021/05/04 01:04:04;;;;;;;11.07;5.90;;;;;;;;;;4258323;33;20717;-59
2021/05/04 01:06:30;;;;;;;10.70;5.35;;;;;;;;;;4261900;33;20334;-59
2021/05/04 01:08:55;;;;;;;6.00;3.65;;;;;;;;;;4276379;33;20309;-57
2021/05/04 01:11:21;;;;;;;10.13;3.62;;;;;;;;;;4280962;33;20302;-57
2021/05/04 01:13:48;;;;;;;11.52;5.37;;;;;;;;;;4271842;33;20708;-58
2021/05/04 01:16:14;;;;;;;8.02;3.85;;;;;;;;;;4270446;33;20240;-59
2021/05/04 01:18:39;;;;;;;5.75;3.80;;;;;;;;;;4274133;33;20370;-59
2021/05/04 01:21:05;;;;;;;9.65;3.55;;;;;;;;;;4273915;33;20212;-59
2021/05/04 01:23:31;;;;;;;10.13;3.92;;;;;;;;;;4259454;33;20339;-59
2021/05/04 01:25:56;;;;;;;5.75;4.03;;;;;;;;;;4257197;33;20590;-59
2021/05/04 01:28:22;;;;;;;7.43;4.28;;;;;;;;;;4264906;33;20295;-59
2021/05/04 01:30:48;;;;;;;10.35;5.35;;;;;;;;;;4271067;33;20714;-59
2021/05/04 01:33:13;;;;;;;7.75;3.97;;;;;;;;;;4265555;33;20280;-59
2021/05/04 01:35:39;;;;;;;7.20;3.90;;;;;;;;;;4257725;33;20330;-59
2021/05/04 01:38:04;;;;;;;8.88;4.28;;;;;;;;;;4256998;33;20231;-60
2021/05/04 01:40:30;;;;;;;5.45;4.03;;;;;;;;;;4270104;33;20240;-59
2021/05/04 01:42:56;;;;;;;6.65;4.85;;;;;;;;;;4262514;33;20209;-59
2021/05/04 01:45:21;;;;;;;5.65;4.18;;;;;;;;;;4257630;33;20224;-59
2021/05/04 01:47:47;;;;;;;4.68;3.92;;;;;;;;;;4257306;33;20963;-59
2021/05/04 01:50:13;;;;;;;7.15;4.47;;;;;;;;;;4266638;33;20228;-60
2021/05/04 01:52:39;;;;;;;3.92;3.53;;;;;;;;;;4271545;33;20734;-59
2021/05/04 01:55:07;;;;;;;4.43;3.58;;;;;;;;;;4271249;33;20217;-59
2021/05/04 01:57:32;;;;;;;5.28;3.62;;;;;;;;;;4266109;33;20661;-57
2021/05/04 01:59:58;;;;;;;7.62;3.85;;;;;;;;;;4271606;33;20208;-56
2021/05/04 02:02:23;;;;;;;6.45;3.08;;;;;;;;;;4265825;33;20205;-57
2021/05/04 02:04:49;;;;;;;4.70;2.85;;;;;;;;;;4268502;33;20379;-57
2021/05/04 02:07:14;;;;;;;3.92;3.20;;;;;;;;;;4265858;33;20213;-57
2021/05/04 02:09:40;;;;;;;6.28;3.65;;;;;;;;;;4267468;33;20276;-57
2021/05/04 02:12:06;;;;;;;4.85;3.10;;;;;;;;;;4265595;33;20288;-57
2021/05/04 02:14:31;;;;;;;5.93;3.87;;;;;;;;;;4257691;33;20270;-58
2021/05/04 02:16:57;;;;;;;9.00;3.08;;;;;;;;;;4260388;33;20212;-57
2021/05/04 02:19:22;;;;;;;9.05;3.62;;;;;;;;;;4269606;33;20385;-56
2021/05/04 02:21:48;;;;;;;4.90;3.83;;;;;;;;;;4259025;33;20208;-56
2021/05/04 02:24:13;;;;;;;5.82;4.18;;;;;;;;;;4257718;33;20666;-57
2021/05/04 02:26:39;;;;;;;6.50;3.83;;;;;;;;;;4256851;33;20279;-56
2021/05/04 02:29:04;;;;;;;4.70;3.47;;;;;;;;;;4274037;33;20267;-57
2021/05/04 02:31:30;;;;;;;6.32;4.03;;;;;;;;;;4280162;33;20573;-57
2021/05/04 02:33:55;;;;;;;5.80;3.37;;;;;;;;;;4264097;33;20319;-56
2021/05/04 02:36:21;;;;;;;4.70;3.42;;;;;;;;;;4271701;33;20290;-56
2021/05/04 02:38:46;;;;;;;5.47;3.37;;;;;;;;;;4257082;33;20284;-56
2021/05/04 02:41:12;;;;;;;6.15;3.08;;;;;;;;;;4265405;33;20232;-56
2021/05/04 02:43:38;;;;;;;6.45;3.22;;;;;;;;;;4259047;33;20299;-56
2021/05/04 02:46:06;;;;;;;5.82;3.47;;;;;;;;;;4270065;33;20680;-56
2021/05/04 02:48:38;;;;;;;9.63;4.12;;;;;;;;;;4255859;33;20197;-56
2021/05/04 02:51:05;;;;;;;8.05;3.65;;;;;;;;;;4262656;33;20246;-56
2021/05/04 02:53:31;;;;;;;9.02;3.83;;;;;;;;;;4264467;33;20205;-56
2021/05/04 02:55:56;;;;;;;5.87;3.37;;;;;;;;;;4275200;33;20258;-56
2021/05/04 02:58:22;;;;;;;6.87;3.17;;;;;;;;;;4265086;33;20287;-58
2021/05/04 03:00:48;;;;;;;6.82;3.40;;;;;;;;;;4259573;33;20569;-56
2021/05/04 03:03:13;;;;;;;8.48;3.90;;;;;;;;;;4270131;33;20236;-58
2021/05/04 03:05:38;;;;;;;6.55;3.95;;;;;;;;;;4268648;33;20400;-56
2021/05/04 03:08:04;;;;;;;5.50;3.87;;;;;;;;;;4259453;33;20213;-56
2021/05/04 03:10:30;;;;;;;5.37;3.17;;;;;;;;;;4258081;33;20311;-57
2021/05/04 03:12:55;;;;;;;4.57;3.80;;;;;;;;;;4269914;33;20204;-56
2021/05/04 03:15:21;;;;;;;8.00;4.18;;;;;;;;;;4277987;33;20220;-57
2021/05/04 03:17:47;;;;;;;7.75;3.80;;;;;;;;;;4276145;33;20212;-57
2021/05/04 03:20:13;;;;;;;3.85;3.30;;;;;;;;;;4287794;33;20216;-58
2021/05/04 03:22:39;;;;;;;5.87;3.33;;;;;;;;;;4267318;33;20224;-58
2021/05/04 03:25:05;;;;;;;5.15;3.70;;;;;;;;;;4273578;33;20295;-58
2021/05/04 03:27:30;;;;;;;10.98;4.07;;;;;;;;;;4269287;33;20224;-57
2021/05/04 03:29:56;;;;;;;5.45;3.83;;;;;;;;;;4273466;33;20356;-57
2021/05/04 03:32:21;;;;;;;9.63;3.90;;;;;;;;;;4270101;33;20204;-58
2021/05/04 03:34:47;;;;;;;10.65;4.20;;;;;;;;;;4268526;33;20246;-57
2021/05/04 03:37:12;;;;;;;7.35;3.53;;;;;;;;;;4277535;33;20636;-57
2021/05/04 03:39:38;;;;;;;12.20;4.57;;;;;;;;;;4259504;33;20682;-57
2021/05/04 03:42:03;;;;;;;5.60;4.15;;;;;;;;;;4272516;33;20631;-56
2021/05/04 03:44:29;;;;;;;3.72;3.17;;;;;;;;;;4274083;33;20223;-57
2021/05/04 03:46:54;;;;;;;6.87;3.70;;;;;;;;;;4270887;33;20304;-57
2021/05/04 03:49:20;;;;;;;8.30;3.92;;;;;;;;;;4259556;33;20272;-56
2021/05/04 03:51:45;;;;;;;7.72;3.60;;;;;;;;;;4281647;33;20323;-55
2021/05/04 03:54:11;;;;;;;5.10;3.15;;;;;;;;;;4268884;33;20282;-56
2021/05/04 03:56:36;;;;;;;7.20;5.43;;;;;;;;;;4285366;33;20227;-56
2021/05/04 03:59:02;;;;;;;6.87;5.50;;;;;;;;;;4260485;33;20264;-57
2021/05/04 04:01:28;;;;;;;10.73;6.97;;;;;;;;;;4272980;33;20657;-58
2021/05/04 04:03:53;;;;;;;7.93;6.12;;;;;;;;;;4259210;33;20283;-57
2021/05/04 04:06:19;;;;;;;8.20;6.70;;;;;;;;;;4259191;33;20255;-57
2021/05/04 04:08:46;;;;;;;12.27;5.35;;;;;;;;;;4258737;33;20344;-59
2021/05/04 04:11:12;;;;;;;9.23;5.20;;;;;;;;;;4269622;33;20760;-58
2021/05/04 04:13:38;;;;;;;6.40;4.97;;;;;;;;;;4261829;33;20613;-58
2021/05/04 04:16:04;;;;;;;16.10;5.30;;;;;;;;;;4257831;33;20299;-58
2021/05/04 04:18:29;;;;;;;4.68;3.92;;;;;;;;;;4263569;33;20317;-58
2021/05/04 04:20:55;;;;;;;13.70;5.22;;;;;;;;;;4287138;33;20697;-58
2021/05/04 04:23:20;;;;;;;6.12;4.53;;;;;;;;;;4275683;33;20294;-58
2021/05/04 04:25:45;;;;;;;7.28;4.57;;;;;;;;;;4272898;33;20254;-57
2021/05/04 04:28:11;;;;;;;6.15;5.00;;;;;;;;;;4272336;33;20583;-57
2021/05/04 04:30:36;;;;;;;11.43;4.70;;;;;;;;;;4273095;33;20555;-57
2021/05/04 04:33:04;;;;;;;13.77;7.07;;;;;;;;;;4271806;33;20239;-57
2021/05/04 04:35:29;;;;;;;12.40;5.85;;;;;;;;;;4283513;33;20366;-57
2021/05/04 04:37:55;;;;;;;10.98;5.68;;;;;;;;;;4277591;33;20259;-57
2021/05/04 04:40:20;;;;;;;8.38;5.10;;;;;;;;;;4287150;33;20238;-57
2021/05/04 04:42:46;;;;;;;9.65;5.15;;;;;;;;;;4272688;33;20212;-57
2021/05/04 04:45:12;;;;;;;10.75;5.70;;;;;;;;;;4282797;33;20231;-59
2021/05/04 04:47:37;;;;;;;11.70;4.93;;;;;;;;;;4276431;33;20221;-59
2021/05/04 04:50:03;;;;;;;12.23;5.32;;;;;;;;;;4267167;33;20212;-57
2021/05/04 04:52:29;;;;;;;17.10;5.12;;;;;;;;;;4279931;33;20430;-57
2021/05/04 04:54:55;;;;;;;13.07;6.03;;;;;;;;;;4281437;33;20224;-59
2021/05/04 04:57:22;;;;;;;12.70;7.50;;;;;;;;;;4281174;33;20213;-59
2021/05/04 04:59:49;;;;;;;21.80;9.82;;;;;;;;;;4282722;33;20232;-59
2021/05/04 05:02:19;;;;;;;21.65;11.93;;;;;;;;;;4268448;33;20225;-56
2021/05/04 05:04:45;;;;;;;31.08;13.95;;;;;;;;;;4270140;33;20536;-55
2021/05/04 05:07:11;;;;;;;24.08;14.32;;;;;;;;;;4271974;33;20212;-55
2021/05/04 05:09:36;;;;;;;32.08;15.35;;;;;;;;;;4258777;33;20262;-56
2021/05/04 05:12:04;;;;;;;41.42;21.27;;;;;;;;;;4268229;33;20244;-55
2021/05/04 05:14:29;;;;;;;17.77;9.55;;;;;;;;;;4257992;33;20243;-55
2021/05/04 05:16:55;;;;;;;12.70;7.03;;;;;;;;;;4257797;33;20198;-56
2021/05/04 05:19:20;;;;;;;9.10;5.32;;;;;;;;;;4277962;33;20248;-56
2021/05/04 05:21:46;;;;;;;6.03;3.85;;;;;;;;;;4270557;33;20212;-56
2021/05/04 05:24:11;;;;;;;6.05;3.83;;;;;;;;;;4284660;33;20678;-58
2021/05/04 05:26:37;;;;;;;5.95;3.08;;;;;;;;;;4284738;33;20200;-58
2021/05/04 05:29:03;;;;;;;9.63;2.72;;;;;;;;;;4270220;33;20220;-58
2021/05/04 05:31:31;;;;;;;9.40;4.18;;;;;;;;;;4271381;33;20295;-59
2021/05/04 05:33:56;;;;;;;6.07;3.70;;;;;;;;;;4271164;33;20219;-57
2021/05/04 05:36:22;;;;;;;7.25;3.67;;;;;;;;;;4272032;33;20548;-56
2021/05/04 05:38:48;;;;;;;6.53;3.08;;;;;;;;;;4262847;33;20493;-57
2021/05/04 05:41:13;;;;;;;4.65;2.97;;;;;;;;;;4271774;33;20216;-57
2021/05/04 05:43:39;;;;;;;7.03;3.10;;;;;;;;;;4271381;33;20333;-58
2021/05/04 05:46:05;;;;;;;5.60;3.33;;;;;;;;;;4271229;33;20689;-58
2021/05/04 05:48:30;;;;;;;7.05;2.75;;;;;;;;;;4270800;33;20606;-57
2021/05/04 05:50:56;;;;;;;9.23;2.60;;;;;;;;;;4271578;33;20540;-58
2021/05/04 05:53:21;;;;;;;7.12;2.90;;;;;;;;;;4260581;33;20359;-58
2021/05/04 05:55:48;;;;;;;3.40;2.40;;;;;;;;;;4285949;33;20225;-58
2021/05/04 05:58:13;;;;;;;5.57;3.30;;;;;;;;;;4277904;33;20270;-56
2021/05/04 06:00:39;;;;;;;5.03;3.35;;;;;;;;;;4272563;33;20220;-56
2021/05/04 06:03:05;;;;;;;9.35;3.90;;;;;;;;;;4266843;33;20284;-56
2021/05/04 06:05:32;;;;;;;5.37;2.85;;;;;;;;;;4257517;33;20232;-56
2021/05/04 06:07:59;;;;;;;4.35;3.03;;;;;;;;;;4255572;33;20213;-56
2021/05/04 06:10:24;;;;;;;5.65;2.37;;;;;;;;;;4265002;33;20335;-57
2021/05/04 06:13:05;;;;;;;5.45;3.05;;;;;;;;;;4262692;33;20299;-57
2021/05/04 06:15:31;;;;;;;4.35;2.83;;;;;;;;;;4256148;33;20304;-57
2021/05/04 06:17:57;;;;;;;5.35;3.10;;;;;;;;;;4265734;33;20219;-57
2021/05/04 06:20:23;;;;;;;3.67;2.65;;;;;;;;;;4278926;33;20612;-57
2021/05/04 06:22:48;;;;;;;4.45;2.75;;;;;;;;;;4262327;33;20251;-57
2021/05/04 06:25:14;;;;;;;3.92;2.90;;;;;;;;;;4259581;33;20367;-59
2021/05/04 06:27:39;;;;;;;3.75;2.80;;;;;;;;;;4265715;33;20355;-59
2021/05/04 06:30:07;;;;;;;3.62;2.47;;;;;;;;;;4257914;33;20225;-60
2021/05/04 06:32:33;;;;;;;4.57;3.53;;;;;;;;;;4258920;33;20666;-59
2021/05/04 06:34:58;;;;;;;7.68;3.20;;;;;;;;;;4258875;33;20529;-59
2021/05/04 06:37:24;;;;;;;9.15;2.95;;;;;;;;;;4260878;33;20338;-60
2021/05/04 06:39:50;;;;;;;4.25;2.95;;;;;;;;;;4271188;33;20743;-59
2021/05/04 06:42:15;;;;;;;4.53;3.28;;;;;;;;;;4270622;33;20236;-59
2021/05/04 06:44:41;;;;;;;7.07;2.47;;;;;;;;;;4271020;33;20220;-59
2021/05/04 06:47:07;;;;;;;8.27;3.05;;;;;;;;;;4265994;33;20272;-59
2021/05/04 06:49:32;;;;;;;7.00;3.03;;;;;;;;;;4273506;33;20228;-56
2021/05/04 06:51:58;;;;;;;3.30;2.35;;;;;;;;;;4273355;33;20402;-55
2021/05/04 06:54:24;;;;;;;14.85;3.70;;;;;;;;;;4272926;33;20276;-56
2021/05/04 06:56:50;;;;;;;7.87;3.00;;;;;;;;;;4269011;33;20647;-56
2021/05/04 06:59:15;;;;;;;4.00;2.28;;;;;;;;;;4264544;33;20815;-55
2021/05/04 07:01:40;;;;;;;5.60;2.95;;;;;;;;;;4270212;33;20232;-55
2021/05/04 07:04:06;;;;;;;5.20;2.95;;;;;;;;;;4256794;33;20288;-56
2021/05/04 07:06:32;;;;;;;5.12;2.70;;;;;;;;;;4272828;33;20228;-56
2021/05/04 07:08:58;;;;;;;4.68;2.97;;;;;;;;;;4263833;33;20271;-59
2021/05/04 07:11:23;;;;;;;9.43;2.75;;;;;;;;;;4269794;33;20266;-56
2021/05/04 07:13:48;;;;;;;8.48;3.05;;;;;;;;;;4268032;33;20318;-56
2021/05/04 07:16:14;;;;;;;5.05;2.97;;;;;;;;;;4271437;33;20677;-56
2021/05/04 07:18:39;;;;;;;4.12;2.50;;;;;;;;;;4274591;33;20302;-56
2021/05/04 07:21:09;;;;;;;5.35;2.67;;;;;;;;;;4284163;33;20266;-57
2021/05/04 07:23:36;;;;;;;4.47;2.83;;;;;;;;;;4269404;33;20265;-57
2021/05/04 07:26:02;;;;;;;5.53;2.42;;;;;;;;;;4279370;33;20216;-56
2021/05/04 07:28:28;;;;;;;7.35;2.67;;;;;;;;;;4267598;33;20339;-58
2021/05/04 07:30:54;;;;;;;3.67;2.80;;;;;;;;;;4270648;33;20609;-58
2021/05/04 07:33:20;;;;;;;22.15;3.12;;;;;;;;;;4259435;33;20524;-57
2021/05/04 07:35:49;;;;;;;5.75;2.62;;;;;;;;;;4257921;33;20272;-55
2021/05/04 07:38:15;;;;;;;3.97;2.78;;;;;;;;;;4256427;33;20347;-56
2021/05/04 07:40:41;;;;;;;5.12;2.47;;;;;;;;;;4274857;33;20299;-56
2021/05/04 07:43:07;;;;;;;4.32;2.67;;;;;;;;;;4270070;33;20244;-56
2021/05/04 07:45:33;;;;;;;5.97;2.97;;;;;;;;;;4276873;33;20225;-57
2021/05/04 07:48:00;;;;;;;3.95;2.67;;;;;;;;;;4263247;33;20255;-57
2021/05/04 07:50:26;;;;;;;10.13;3.50;;;;;;;;;;4272650;33;20343;-55
2021/05/04 07:52:51;;;;;;;6.22;2.90;;;;;;;;;;4269646;33;20743;-56
2021/05/04 07:55:17;;;;;;;8.27;2.55;;;;;;;;;;4274636;33;20243;-56
2021/05/04 07:57:43;;;;;;;46.40;9.10;;;;;;;;;;4263256;33;20216;-56
2021/05/04 08:00:09;;;;;;;33.05;7.80;;;;;;;;;;4280510;33;20343;-54
2021/05/04 08:02:35;;;;;;;8.10;4.05;;;;;;;;;;4259036;33;20205;-56
2021/05/04 08:05:01;;;;;;;6.50;3.45;;;;;;;;;;4259277;33;20287;-55
2021/05/04 08:07:26;;;;;;;8.65;2.78;;;;;;;;;;4259379;33;20591;-57
2021/05/04 08:09:53;;;;;;;9.27;3.08;;;;;;;;;;4272707;33;20240;-56
2021/05/04 08:12:19;;;;;;;6.85;2.97;;;;;;;;;;4272601;33;20398;-56
2021/05/04 08:14:45;;;;;;;4.43;2.87;;;;;;;;;;4286759;33;20607;-56
2021/05/04 08:17:14;;;;;;;3.97;2.80;;;;;;;;;;4285294;33;20254;-56
2021/05/04 08:19:40;;;;;;;3.62;2.78;;;;;;;;;;4272783;33;20749;-56
2021/05/04 08:22:06;;;;;;;4.35;3.05;;;;;;;;;;4278957;33;20232;-57
2021/05/04 08:24:32;;;;;;;5.22;2.83;;;;;;;;;;4286137;33;20224;-57
2021/05/04 08:26:57;;;;;;;3.97;2.75;;;;;;;;;;4286721;33;20570;-57
2021/05/04 08:29:23;;;;;;;7.12;3.00;;;;;;;;;;4285078;33;20287;-58
2021/05/04 08:31:48;;;;;;;6.35;2.60;;;;;;;;;;4268784;33;20287;-70
2021/05/04 08:34:15;;;;;;;3.90;3.00;;;;;;;;;;4270447;33;20279;-64
2021/05/04 08:36:40;;;;;;;7.10;3.58;;;;;;;;;;4271219;33;20240;-68
2021/05/04 08:39:06;;;;;;;7.07;3.40;;;;;;;;;;4285327;33;20328;-65
2021/05/04 08:41:34;;;;;;;5.30;2.80;;;;;;;;;;4284560;33;20630;-62
2021/05/04 08:43:59;;;;;;;5.72;3.08;;;;;;;;;;4273864;33;20330;-67
2021/05/04 08:46:26;;;;;;;7.53;2.75;;;;;;;;;;4284790;33;20593;-56
2021/05/04 08:48:52;;;;;;;7.32;4.53;;;;;;;;;;4286922;33;20559;-54
2021/05/04 08:51:18;;;;;;;4.50;2.67;;;;;;;;;;4275554;33;20299;-55
2021/05/04 08:53:44;;;;;;;5.10;2.28;;;;;;;;;;4280786;33;20338;-57
2021/05/04 08:56:14;;;;;;;7.85;3.17;;;;;;;;;;4286834;33;20283;-55
2021/05/04 08:58:41;;;;;;;6.40;3.42;;;;;;;;;;4286007;33;20285;-55
2021/05/04 09:01:06;;;;;;;6.40;3.15;;;;;;;;;;4274272;33;20650;-56
2021/05/04 09:03:39;;;;;;;6.10;3.20;;;;;;;;;;4272050;33;20306;-56
2021/05/04 09:09:01;;;;;;;5.43;3.28;;;;;;;;;;4284805;33;20767;-56
2021/05/04 09:16:41;;;;;;;6.15;3.30;;;;;;;;;;4283414;33;20228;-57
2021/05/04 09:21:41;;;;;;;4.28;3.00;;;;;;;;;;4269991;33;20559;-56
2021/05/04 09:24:28;;;;;;;6.65;3.28;;;;;;;;;;4269742;33;20196;-57
2021/05/04 09:27:15;;;;;;;8.43;3.10;;;;;;;;;;4271231;33;20224;-57
2021/05/04 09:29:41;;;;;;;5.53;2.95;;;;;;;;;;4271540;33;20737;-56
2021/05/04 09:32:17;;;;;;;6.43;2.30;;;;;;;;;;4271306;33;20248;-56
2021/05/04 09:34:48;;;;;;;4.78;2.70;;;;;;;;;;4271290;33;20598;-56
2021/05/04 09:37:22;;;;;;;12.57;3.80;;;;;;;;;;4271254;33;20317;-56
2021/05/04 09:39:48;;;;;;;4.30;2.58;;;;;;;;;;4271046;33;20216;-55
2021/05/04 09:42:13;;;;;;;7.55;2.75;;;;;;;;;;4271289;33;20230;-57
2021/05/04 09:44:41;;;;;;;4.82;2.37;;;;;;;;;;4271206;33;20208;-56
2021/05/04 09:47:09;;;;;;;9.30;2.37;;;;;;;;;;4271199;33;20256;-56
2021/05/04 09:49:37;;;;;;;5.10;2.58;;;;;;;;;;4272581;33;20559;-56
2021/05/04 09:52:44;;;;;;;4.45;2.60;;;;;;;;;;4285729;33;20687;-58
2021/05/04 09:55:16;;;;;;;7.87;3.00;;;;;;;;;;4283896;33;20370;-59
2021/05/04 09:57:42;;;;;;;5.82;2.50;;;;;;;;;;4284239;33;20355;-56
2021/05/04 10:00:15;;;;;;;3.05;2.35;;;;;;;;;;4285729;33;20228;-56
2021/05/04 10:02:42;;;;;;;3.90;3.35;;;;;;;;;;4285628;33;20204;-56
2021/05/04 10:05:15;;;;;;;6.62;3.20;;;;;;;;;;4285382;33;20270;-55
2021/05/04 10:07:41;;;;;;;4.35;2.83;;;;;;;;;;4285388;33;20363;-56
2021/05/04 10:10:09;;;;;;;3.83;2.53;;;;;;;;;;4284814;33;20768;-56
2021/05/04 10:12:39;;;;;;;9.75;2.72;;;;;;;;;;4285363;33;20295;-56
2021/05/04 10:15:10;;;;;;;5.82;2.30;;;;;;;;;;4285203;33;20217;-56
2021/05/04 10:17:38;;;;;;;12.85;3.55;;;;;;;;;;4282238;33;20201;-56
2021/05/04 10:20:18;;;;;;;10.27;3.40;;;;;;;;;;4256955;33;20298;-56
2021/05/04 10:22:44;;;;;;;9.20;2.78;;;;;;;;;;4256742;33;20227;-56
2021/05/04 10:25:19;;;;;;;9.82;2.95;;;;;;;;;;4256917;33;20296;-57
2021/05/04 10:27:44;;;;;;;13.80;3.15;;;;;;;;;;4257206;33;20594;-57
2021/05/04 10:30:12;;;;;;;7.75;3.20;;;;;;;;;;4256875;33;20343;-57
2021/05/04 10:32:59;;;;;;;7.93;3.12;;;;;;;;;;4256542;33;20209;-56
2021/05/04 10:35:31;;;;;;;12.37;3.78;;;;;;;;;;4256743;33;20216;-56
2021/05/04 10:37:58;;;;;;;10.43;3.60;;;;;;;;;;4256537;33;20212;-56
2021/05/04 10:40:31;;;;;;;4.78;3.25;;;;;;;;;;4257046;33;20239;-56
2021/05/04 10:43:21;;;;;;;7.47;3.25;;;;;;;;;;4257108;33;20300;-56
2021/05/04 10:45:49;;;;;;;9.45;3.12;;;;;;;;;;4256866;33;20243;-56
2021/05/04 10:48:15;;;;;;;8.48;3.60;;;;;;;;;;4256579;33;20284;-56
2021/05/04 10:50:50;;;;;;;10.27;3.45;;;;;;;;;;4271711;33;20559;-56
2021/05/04 10:53:18;;;;;;;6.22;3.20;;;;;;;;;;4285144;33;20226;-60
2021/05/04 10:55:56;;;;;;;9.20;2.90;;;;;;;;;;4285510;33;20262;-59
2021/05/04 10:58:26;;;;;;;9.48;3.30;;;;;;;;;;4285085;33;20200;-56
2021/05/04 11:01:03;;;;;;;13.68;3.45;;;;;;;;;;4285188;33;20247;-56
2021/05/04 11:03:29;;;;;;;7.53;3.28;;;;;;;;;;4285341;33;20211;-56
2021/05/04 11:06:24;;;;;;;10.30;3.90;;;;;;;;;;4283957;33;20224;-56
2021/05/04 11:08:49;;;;;;;5.50;2.80;;;;;;;;;;4281750;33;20258;-56
2021/05/04 11:11:26;;;;;;;6.85;2.85;;;;;;;;;;4287075;33;20221;-56
2021/05/04 11:14:08;;;;;;;6.15;3.50;;;;;;;;;;4287824;33;20222;-55
2021/05/04 11:16:36;;;;;;;4.45;3.28;;;;;;;;;;4286777;33;20290;-56
2021/05/04 11:19:10;;;;;;;12.65;2.85;;;;;;;;;;4264879;33;20225;-56
2021/05/04 11:21:51;;;;;;;11.90;3.12;;;;;;;;;;4273506;33;20197;-56
2021/05/04 11:24:19;;;;;;;10.07;3.15;;;;;;;;;;4273570;33;20278;-57
2021/05/04 11:26:59;;;;;;;4.70;3.10;;;;;;;;;;4273265;33;20259;-59
2021/05/04 11:29:31;;;;;;;6.55;3.25;;;;;;;;;;4273172;33;20216;-59
2021/05/04 11:32:15;;;;;;;11.93;3.47;;;;;;;;;;4272626;33;20220;-59
2021/05/04 11:34:53;;;;;;;9.63;2.58;;;;;;;;;;4273016;33;20390;-59
2021/05/04 11:37:19;;;;;;;5.37;3.33;;;;;;;;;;4273447;33;20193;-59
2021/05/04 11:39:54;;;;;;;22.80;3.72;;;;;;;;;;4273276;33;20652;-59
2021/05/04 11:42:26;;;;;;;8.10;2.60;;;;;;;;;;4273555;33;20355;-59
2021/05/04 11:44:52;;;;;;;7.07;2.80;;;;;;;;;;4271757;33;20254;-59
2021/05/04 11:47:26;;;;;;;7.75;2.58;;;;;;;;;;4273014;33;20201;-56
2021/05/04 11:50:03;;;;;;;3.87;2.42;;;;;;;;;;4275834;33;20251;-56
2021/05/04 11:52:29;;;;;;;4.50;2.70;;;;;;;;;;4287414;33;20291;-56
2021/05/04 11:55:21;;;;;;;6.05;3.15;;;;;;;;;;4287345;33;20241;-54
2021/05/04 11:57:58;;;;;;;5.47;2.72;;;;;;;;;;4285737;33;20220;-57
2021/05/04 12:00:25;;;;;;;14.18;3.22;;;;;;;;;;4275389;33;20279;-55
2021/05/04 12:02:51;;;;;;;15.27;3.42;;;;;;;;;;4286997;33;20211;-55
2021/05/04 12:05:39;;;;;;;6.30;3.10;;;;;;;;;;4286837;33;20212;-55
2021/05/04 12:08:05;;;;;;;6.55;3.00;;;;;;;;;;4286697;33;20212;-55
2021/05/04 12:10:48;;;;;;;11.43;3.50;;;;;;;;;;4286861;33;20352;-58
2021/05/04 12:13:16;;;;;;;5.03;3.62;;;;;;;;;;4286529;33;20224;-59
2021/05/04 12:15:44;;;;;;;7.30;3.62;;;;;;;;;;4287158;33;20250;-58
2021/05/04 12:18:28;;;;;;;8.00;3.53;;;;;;;;;;4277186;33;20292;-58
2021/05/04 12:21:00;;;;;;;4.53;2.47;;;;;;;;;;4257418;33;20247;-59
2021/05/04 12:23:30;;;;;;;4.75;2.78;;;;;;;;;;4258607;33;20193;-58
2021/05/04 12:26:01;;;;;;;5.82;3.47;;;;;;;;;;4258488;33;20299;-55
2021/05/04 12:28:36;;;;;;;10.75;3.12;;;;;;;;;;4258401;33;20252;-56
2021/05/04 12:31:06;;;;;;;13.10;4.35;;;;;;;;;;4258362;33;20228;-59
2021/05/04 12:33:33;;;;;;;7.40;3.00;;;;;;;;;;4258141;33;20276;-58
2021/05/04 12:38:37;;;;;;;9.07;3.67;;;;;;;;;;4268588;33;20224;-59
2021/05/04 12:41:11;;;;;;;6.62;3.92;;;;;;;;;;4258325;33;20642;-59
2021/05/04 12:43:43;;;;;;;6.72;3.65;;;;;;;;;;4258387;33;20185;-58
2021/05/04 12:46:13;;;;;;;8.45;3.33;;;;;;;;;;4257834;33;20302;-56
2021/05/04 12:48:41;;;;;;;6.05;3.42;;;;;;;;;;4257965;33;20288;-56
2021/05/04 12:51:15;;;;;;;8.18;3.53;;;;;;;;;;4278066;33;20250;-57
2021/05/04 12:53:46;;;;;;;8.85;3.30;;;;;;;;;;4286133;33;20215;-58
2021/05/04 12:56:12;;;;;;;9.45;3.40;;;;;;;;;;4286320;33;20422;-58
2021/05/04 12:58:57;;;;;;;12.88;4.03;;;;;;;;;;4286422;33;20295;-59
2021/05/04 13:01:35;;;;;;;15.80;3.62;;;;;;;;;;4285862;33;20243;-59
2021/05/04 13:04:05;;;;;;;5.90;3.00;;;;;;;;;;4285355;33;20258;-59
2021/05/04 13:06:49;;;;;;;13.07;3.72;;;;;;;;;;4297127;33;20321;-56
2021/05/04 13:09:23;;;;;;;6.43;3.12;;;;;;;;;;4286355;33;20208;-56
2021/05/04 13:32:12;;;;;;;4.90;3.10;;;;;;;;;;4257169;33;20606;-56
2021/05/04 13:37:07;;;;;;;10.07;3.10;;;;;;;;;;4257078;33;20209;-56
2021/05/04 13:47:39;;;;;;;4.80;2.80;;;;;;;;;;4256102;33;20267;-56
2021/05/04 13:50:08;;;;;;;18.90;2.78;;;;;;;;;;4265326;33;20648;-56
2021/05/04 13:52:34;;;;;;;8.20;2.95;;;;;;;;;;4285406;33;20208;-56
2021/05/04 13:54:59;;;;;;;6.45;2.85;;;;;;;;;;4272142;33;20764;-56
2021/05/04 13:57:26;;;;;;;9.40;2.72;;;;;;;;;;4285256;33;20531;-57
2021/05/04 13:59:56;;;;;;;11.00;2.53;;;;;;;;;;4285488;33;20357;-56
2021/05/04 14:26:37;;;;;;;4.30;2.53;;;;;;;;;;4256578;33;20263;-58
2021/05/04 14:29:03;;;;;;;8.52;3.58;;;;;;;;;;4256607;33;20603;-58
2021/05/04 14:31:29;;;;;;;5.00;2.35;;;;;;;;;;4267243;33;20229;-58
2021/05/04 14:33:55;;;;;;;8.00;2.80;;;;;;;;;;4257070;33;20575;-58
2021/05/04 15:00:36;;;;;;;5.70;2.30;;;;;;;;;;4259314;33;20312;-56
2021/05/04 15:03:02;;;;;;;4.45;2.00;;;;;;;;;;4259370;33;20207;-58
2021/05/04 15:05:30;;;;;;;12.73;2.50;;;;;;;;;;4259412;33;20533;-58
2021/05/04 15:07:55;;;;;;;9.40;2.65;;;;;;;;;;4259130;33;20239;-59
2021/05/04 15:10:21;;;;;;;9.45;2.72;;;;;;;;;;4258654;33;20282;-58
2021/05/04 15:12:46;;;;;;;3.50;2.03;;;;;;;;;;4269850;33;20232;-58
2021/05/04 15:15:19;;;;;;;5.28;2.65;;;;;;;;;;4259073;33;20259;-59
2021/05/04 15:23:00;;;;;;;7.30;2.42;;;;;;;;;;4287146;33;20750;-57
2021/05/04 15:25:27;;;;;;;6.53;3.03;;;;;;;;;;4287461;33;20658;-57
2021/05/04 15:27:52;;;;;;;7.22;3.33;;;;;;;;;;4286236;33;20306;-57
2021/05/04 15:30:19;;;;;;;4.82;2.42;;;;;;;;;;4287230;33;20266;-56
2021/05/04 15:35:15;;;;;;;8.90;2.33;;;;;;;;;;4287608;33;20294;-57
2021/05/04 15:37:40;;;;;;;4.97;2.55;;;;;;;;;;4287409;33;20358;-57
2021/05/04 15:40:07;;;;;;;11.00;3.00;;;;;;;;;;4273992;33;20239;-57
2021/05/04 15:42:33;;;;;;;12.25;2.70;;;;;;;;;;4287118;33;20270;-57
2021/05/04 15:45:00;;;;;;;4.50;2.17;;;;;;;;;;4287144;33;20580;-57
2021/05/04 15:52:47;;;;;;;6.10;2.33;;;;;;;;;;4235915;33;20682;-57
2021/05/04 16:00:49;;;;;;;12.45;2.33;;;;;;;;;;4258681;33;20262;-59
2021/05/04 16:08:56;;;;;;;4.30;2.87;;;;;;;;;;4258598;33;20265;-59
2021/05/04 16:11:17;;;;;;;8.40;3.75;;;;;;;;;;4269092;33;20272;-59
2021/05/04 16:13:44;;;;;;;8.55;3.45;;;;;;;;;;4272566;33;20275;-59
2021/05/04 16:16:10;;;;;;;10.48;3.70;;;;;;;;;;4272491;33;20804;-59
2021/05/04 16:18:35;;;;;;;5.95;3.00;;;;;;;;;;4290603;33;20326;-59
2021/05/04 16:21:13;;;;;;;7.72;3.33;;;;;;;;;;4286749;33;20231;-59
2021/05/04 16:23:45;;;;;;;10.30;2.65;;;;;;;;;;4286737;33;20357;-59
2021/05/04 16:31:16;;;;;;;10.85;2.58;;;;;;;;;;4286670;33;20274;-59
2021/05/04 16:33:42;;;;;;;6.65;2.80;;;;;;;;;;4285205;33;20754;-59
2021/05/04 16:36:09;;;;;;;9.50;2.50;;;;;;;;;;4286141;33;20220;-59
2021/05/04 16:38:34;;;;;;;7.68;2.65;;;;;;;;;;4285349;33;20754;-59
2021/05/04 16:41:00;;;;;;;12.45;3.33;;;;;;;;;;4286731;33;20290;-59
2021/05/04 16:43:26;;;;;;;6.03;2.97;;;;;;;;;;4285529;33;20302;-59